Time;durP1;ratioP1;P1;durP2;ratioP2;P2;SDS_P1;SDS_P2;PMS_P1;PMS_P2;Temp;Humidity;BMP_temperature;BMP_pressure;BME280_temperature;BME280_humidity;BME280_pressure;Samples;Min_cycle;Max_cycle;Signal;HPM_P1;HPM_P2
2021/12/27 00:01:05;;;;;;;31.63;16.17;;;-0.30;99.90;;;;;;4942902;29;20055;-49
2021/12/27 00:03:30;;;;;;;31.88;19.00;;;-0.30;99.90;;;;;;4941409;29;20066;-49
2021/12/27 00:05:56;;;;;;;26.42;17.65;;;-0.30;99.90;;;;;;4946037;29;20051;-48
2021/12/27 00:08:23;;;;;;;27.23;18.92;;;-0.30;99.90;;;;;;4943321;29;20058;-50
2021/12/27 00:10:50;;;;;;;24.73;16.67;;;-0.40;99.90;;;;;;4918997;29;20059;-48
2021/12/27 00:13:15;;;;;;;27.42;19.00;;;-0.40;99.90;;;;;;4925595;29;20702;-48
2021/12/27 00:15:43;;;;;;;25.77;16.95;;;-0.40;99.90;;;;;;4924712;29;20051;-49
2021/12/27 00:18:09;;;;;;;28.02;17.88;;;-0.40;99.90;;;;;;4944760;29;20477;-49
2021/12/27 00:20:35;;;;;;;28.02;18.55;;;-0.40;99.90;;;;;;4913680;29;20059;-50
2021/12/27 00:23:01;;;;;;;23.73;17.65;;;-0.40;99.90;;;;;;4946777;29;20098;-48
2021/12/27 00:25:29;;;;;;;28.20;18.45;;;-0.40;99.90;;;;;;4946739;29;20051;-51
2021/12/27 00:27:55;;;;;;;29.15;19.08;;;-0.40;99.90;;;;;;4942678;29;20056;-51
2021/12/27 00:30:21;;;;;;;29.33;19.65;;;-0.30;99.90;;;;;;4925188;29;20121;-48
2021/12/27 00:32:48;;;;;;;27.80;18.33;;;-0.30;99.90;;;;;;4926791;29;20389;-48
2021/12/27 00:35:15;;;;;;;29.80;18.83;;;-0.30;99.90;;;;;;4912866;29;20336;-48
2021/12/27 00:37:41;;;;;;;27.80;17.85;;;-0.30;99.90;;;;;;4946973;28;20046;-48
2021/12/27 00:40:09;;;;;;;27.40;17.48;;;-0.30;99.90;;;;;;4911989;29;20511;-50
2021/12/27 00:42:35;;;;;;;28.05;17.83;;;-0.30;99.90;;;;;;4928401;29;20082;-49
2021/12/27 00:45:01;;;;;;;27.10;19.30;;;-0.30;99.90;;;;;;4945023;29;20051;-50
2021/12/27 00:47:27;;;;;;;28.25;19.20;;;-0.20;99.90;;;;;;4945303;29;20105;-48
2021/12/27 00:49:53;;;;;;;26.83;17.45;;;-0.20;99.90;;;;;;4945390;29;20062;-48
2021/12/27 00:52:18;;;;;;;26.70;17.35;;;-0.20;99.90;;;;;;4926980;29;20070;-49
2021/12/27 00:54:44;;;;;;;27.73;18.83;;;-0.20;99.90;;;;;;4945234;29;20095;-50
2021/12/27 00:57:10;;;;;;;26.65;17.52;;;-0.20;99.90;;;;;;4946839;29;20051;-49
2021/12/27 00:59:35;;;;;;;25.13;17.25;;;-0.20;99.90;;;;;;4945314;29;20058;-48
2021/12/27 01:02:01;;;;;;;26.33;18.38;;;-0.10;99.90;;;;;;4944746;29;20058;-48
2021/12/27 01:04:27;;;;;;;28.67;18.95;;;-0.20;99.90;;;;;;4944131;29;20550;-49
2021/12/27 01:06:53;;;;;;;31.20;20.35;;;-0.20;99.90;;;;;;4947424;29;20060;-49
2021/12/27 01:09:33;;;;;;;24.30;16.35;;;-0.10;99.90;;;;;;4948847;29;20490;-49
2021/12/27 01:14:44;;;;;;;26.80;18.50;;;-0.10;99.90;;;;;;4945581;29;20063;-51
2021/12/27 01:17:11;;;;;;;26.73;17.63;;;-0.10;99.90;;;;;;4945533;29;20154;-49
2021/12/27 01:19:37;;;;;;;26.95;18.38;;;-0.10;99.90;;;;;;4945744;29;20078;-51
2021/12/27 01:22:04;;;;;;;28.20;18.25;;;-0.10;99.90;;;;;;4945603;29;20106;-48
2021/12/27 01:24:29;;;;;;;27.83;18.90;;;-0.10;99.90;;;;;;4926467;29;20051;-49
2021/12/27 01:26:55;;;;;;;31.08;19.15;;;-0.10;99.90;;;;;;4925970;29;20497;-49
2021/12/27 01:29:21;;;;;;;29.13;18.05;;;0.00;99.90;;;;;;4943025;29;20447;-48
2021/12/27 01:31:46;;;;;;;30.33;19.42;;;-0.10;99.90;;;;;;4944388;29;20067;-49
2021/12/27 01:34:12;;;;;;;25.85;17.25;;;0.00;99.90;;;;;;4929456;29;20538;-48
2021/12/27 01:36:39;;;;;;;28.30;19.52;;;0.00;99.90;;;;;;4945332;29;20109;-48
2021/12/27 01:39:05;;;;;;;29.40;17.80;;;0.00;99.90;;;;;;4928002;29;20142;-48
2021/12/27 01:41:31;;;;;;;24.95;16.65;;;0.00;99.90;;;;;;4927578;29;20062;-50
2021/12/27 01:43:58;;;;;;;26.80;18.83;;;0.10;99.90;;;;;;4940666;28;20043;-49
2021/12/27 01:46:26;;;;;;;24.02;16.75;;;0.10;99.90;;;;;;4944224;29;20047;-49
2021/12/27 01:48:56;;;;;;;26.65;18.70;;;0.10;99.90;;;;;;4926877;29;20054;-51
2021/12/27 01:51:25;;;;;;;27.95;18.48;;;0.10;99.90;;;;;;4927761;29;20090;-48
2021/12/27 01:53:51;;;;;;;29.38;18.70;;;0.10;99.90;;;;;;4926446;29;20081;-48
2021/12/27 01:56:20;;;;;;;29.15;19.10;;;0.10;99.90;;;;;;4945164;29;20090;-49
2021/12/27 01:58:47;;;;;;;25.90;18.17;;;0.10;99.90;;;;;;4927240;29;20058;-49
2021/12/27 02:01:13;;;;;;;27.23;19.25;;;0.10;99.90;;;;;;4942395;29;20526;-49
2021/12/27 02:03:41;;;;;;;27.80;19.58;;;0.10;99.90;;;;;;4943576;29;20110;-48
2021/12/27 02:06:08;;;;;;;27.13;17.98;;;0.10;99.90;;;;;;4944490;29;20055;-48
2021/12/27 02:08:36;;;;;;;31.40;19.27;;;0.10;99.90;;;;;;4944285;29;20099;-50
2021/12/27 02:11:04;;;;;;;28.23;19.30;;;0.10;99.90;;;;;;4945318;28;20113;-50
2021/12/27 02:13:29;;;;;;;26.85;18.70;;;0.10;99.90;;;;;;4930440;29;20054;-51
2021/12/27 02:15:55;;;;;;;28.17;18.45;;;0.10;99.90;;;;;;4944062;29;20047;-54
2021/12/27 02:18:21;;;;;;;26.95;19.25;;;0.20;99.90;;;;;;4930696;29;20059;-47
2021/12/27 02:20:47;;;;;;;25.50;17.90;;;0.20;99.90;;;;;;4945168;28;20470;-49
2021/12/27 02:23:18;;;;;;;29.95;19.90;;;0.20;99.90;;;;;;4941214;28;20063;-49
2021/12/27 02:25:47;;;;;;;27.02;18.38;;;0.20;99.90;;;;;;4942267;29;20078;-49
2021/12/27 02:28:14;;;;;;;27.83;19.15;;;0.20;99.90;;;;;;4924098;29;20102;-48
2021/12/27 02:30:42;;;;;;;28.30;18.95;;;0.20;99.90;;;;;;4921810;29;20047;-48
2021/12/27 02:33:09;;;;;;;27.10;19.38;;;0.20;99.90;;;;;;4933737;29;20046;-47
2021/12/27 02:35:38;;;;;;;29.10;19.20;;;0.20;99.90;;;;;;4926046;29;20059;-48
2021/12/27 02:38:06;;;;;;;29.30;18.73;;;0.20;99.90;;;;;;4942148;29;20493;-49
2021/12/27 02:40:34;;;;;;;25.08;18.15;;;0.30;99.90;;;;;;4944442;29;20047;-49
2021/12/27 02:43:07;;;;;;;33.03;21.52;;;0.30;99.90;;;;;;4943690;29;20058;-50
2021/12/27 02:45:40;;;;;;;25.52;19.30;;;0.30;99.90;;;;;;4942497;29;20079;-48
2021/12/27 02:48:07;;;;;;;26.13;18.20;;;0.30;99.90;;;;;;4942579;28;20398;-47
2021/12/27 02:50:34;;;;;;;26.25;17.90;;;0.30;99.90;;;;;;4944502;28;20089;-47
2021/12/27 02:53:00;;;;;;;27.83;19.00;;;0.30;99.90;;;;;;4943422;29;20058;-48
2021/12/27 02:55:27;;;;;;;28.90;18.98;;;0.30;99.90;;;;;;4944700;29;20051;-48
2021/12/27 02:57:53;;;;;;;27.92;19.10;;;0.30;99.90;;;;;;4937550;29;20047;-48
2021/12/27 03:00:27;;;;;;;30.73;19.80;;;0.30;99.90;;;;;;4944657;29;20086;-48
2021/12/27 03:02:53;;;;;;;;;;;0.30;99.90;;;;;;4943679;29;20059;-49
2021/12/27 03:05:21;;;;;;;30.20;20.58;;;0.30;99.90;;;;;;4942891;29;19937;-48
2021/12/27 03:07:49;;;;;;;33.10;20.98;;;0.30;99.90;;;;;;4942822;29;20141;-50
2021/12/27 03:10:18;;;;;;;28.33;20.75;;;0.30;99.90;;;;;;4942791;29;20039;-47
2021/12/27 03:12:45;;;;;;;30.48;19.48;;;0.30;99.90;;;;;;4924459;29;20143;-49
2021/12/27 03:15:13;;;;;;;30.73;20.75;;;0.30;99.90;;;;;;4927915;29;20066;-49
2021/12/27 03:17:43;;;;;;;31.35;20.08;;;0.30;99.90;;;;;;4945168;29;20090;-48
2021/12/27 03:20:10;;;;;;;29.92;19.92;;;0.30;99.90;;;;;;4926646;29;20500;-50
2021/12/27 03:22:37;;;;;;;29.75;19.92;;;0.30;99.90;;;;;;4925222;29;20047;-50
2021/12/27 03:25:05;;;;;;;28.92;20.52;;;0.30;99.90;;;;;;4910119;29;20122;-48
2021/12/27 03:27:31;;;;;;;32.58;21.92;;;0.30;99.90;;;;;;4913244;29;20577;-48
2021/12/27 03:29:57;;;;;;;32.85;21.38;;;0.30;99.90;;;;;;4943466;29;20054;-48
2021/12/27 03:32:23;;;;;;;32.47;20.83;;;0.30;99.90;;;;;;4941477;29;20051;-49
2021/12/27 03:34:57;;;;;;;29.02;20.25;;;0.30;99.90;;;;;;4942989;29;20479;-47
2021/12/27 03:37:24;;;;;;;31.33;21.20;;;0.30;99.90;;;;;;4943832;29;20062;-48
2021/12/27 03:39:51;;;;;;;32.50;21.45;;;0.30;99.90;;;;;;4939100;29;20095;-48
2021/12/27 03:42:17;;;;;;;31.35;21.88;;;0.30;99.90;;;;;;4942743;29;20066;-48
2021/12/27 03:44:44;;;;;;;33.35;22.75;;;0.30;99.90;;;;;;4918863;29;20161;-48
2021/12/27 03:47:10;;;;;;;35.20;23.80;;;0.30;99.90;;;;;;4942614;28;20482;-48
2021/12/27 03:49:37;;;;;;;34.85;22.38;;;0.30;99.90;;;;;;4946011;28;20110;-47
2021/12/27 03:52:03;;;;;;;31.75;21.95;;;0.30;99.90;;;;;;4931831;29;20138;-47
2021/12/27 03:54:29;;;;;;;35.15;22.52;;;0.20;99.90;;;;;;4946506;28;20062;-47
2021/12/27 03:56:55;;;;;;;32.75;22.30;;;0.30;99.90;;;;;;4930499;29;20051;-52
2021/12/27 03:59:24;;;;;;;38.58;24.58;;;0.30;99.90;;;;;;4929455;28;20091;-47
2021/12/27 04:01:50;;;;;;;36.40;24.58;;;0.20;99.90;;;;;;4946161;28;20051;-48
2021/12/27 04:04:16;;;;;;;41.63;25.33;;;0.20;99.90;;;;;;4913204;29;20078;-48
2021/12/27 04:06:42;;;;;;;42.53;25.90;;;0.20;99.90;;;;;;4945576;29;20051;-48
2021/12/27 04:09:07;;;;;;;39.15;23.55;;;0.20;99.90;;;;;;4947795;29;20055;-49
2021/12/27 04:11:33;;;;;;;40.47;25.73;;;0.20;99.90;;;;;;4945884;29;20502;-48
2021/12/27 04:14:02;;;;;;;39.15;24.83;;;0.10;99.90;;;;;;4927928;29;20392;-48
2021/12/27 04:16:28;;;;;;;38.80;25.15;;;0.20;99.90;;;;;;4929082;29;20059;-48
2021/12/27 04:18:54;;;;;;;41.83;26.70;;;0.10;99.90;;;;;;4948963;29;20940;-49
2021/12/27 04:21:20;;;;;;;39.30;25.52;;;0.10;99.90;;;;;;4948675;28;20086;-49
2021/12/27 04:23:45;;;;;;;40.70;25.63;;;0.10;99.90;;;;;;4947644;29;20142;-48
2021/12/27 04:26:11;;;;;;;40.88;26.33;;;0.20;99.90;;;;;;4947209;28;20054;-47
2021/12/27 04:28:37;;;;;;;43.40;25.63;;;0.10;99.90;;;;;;4928934;29;20090;-49
2021/12/27 04:31:03;;;;;;;41.95;27.50;;;0.10;99.90;;;;;;4928653;29;20146;-48
2021/12/27 04:33:29;;;;;;;39.67;25.73;;;0.10;99.90;;;;;;4925252;29;20058;-47
2021/12/27 04:35:55;;;;;;;38.97;25.35;;;0.10;99.90;;;;;;4944573;29;20047;-48
2021/12/27 04:38:20;;;;;;;39.28;25.17;;;0.10;99.90;;;;;;4945215;29;20059;-48
2021/12/27 04:40:49;;;;;;;42.65;26.67;;;0.10;99.90;;;;;;4925641;29;20503;-48
2021/12/27 04:43:19;;;;;;;39.78;25.02;;;0.10;99.90;;;;;;4942093;29;20055;-48
2021/12/27 04:45:47;;;;;;;41.17;27.60;;;0.10;99.90;;;;;;4947291;29;20058;-48
2021/12/27 04:48:13;;;;;;;46.17;27.08;;;0.10;99.90;;;;;;4946138;29;20055;-49
2021/12/27 04:50:40;;;;;;;38.85;24.13;;;0.20;99.90;;;;;;4945241;28;20043;-49
2021/12/27 04:53:06;;;;;;;37.92;25.65;;;0.10;99.90;;;;;;4928851;29;20047;-48
2021/12/27 04:55:34;;;;;;;36.65;25.70;;;0.20;99.90;;;;;;4943406;28;20063;-47
2021/12/27 04:58:01;;;;;;;39.08;25.85;;;0.10;99.90;;;;;;4945607;28;20597;-48
2021/12/27 05:00:27;;;;;;;40.72;26.58;;;0.10;99.90;;;;;;4945491;28;20164;-47
2021/12/27 05:02:52;;;;;;;37.83;25.90;;;0.20;99.90;;;;;;4939346;28;20059;-49
2021/12/27 05:05:20;;;;;;;41.75;25.33;;;0.20;99.90;;;;;;4945088;28;20526;-49
2021/12/27 05:07:47;;;;;;;39.47;25.77;;;0.20;99.90;;;;;;4945629;28;20129;-48
2021/12/27 05:10:16;;;;;;;37.50;25.13;;;0.20;99.90;;;;;;4945730;28;20055;-48
2021/12/27 05:12:43;;;;;;;40.55;25.08;;;0.20;99.90;;;;;;4911810;29;20090;-48
2021/12/27 05:15:09;;;;;;;42.63;27.65;;;0.30;99.90;;;;;;4945578;28;20061;-48
2021/12/27 05:17:35;;;;;;;39.42;25.10;;;0.30;99.90;;;;;;4945768;28;20062;-48
2021/12/27 05:20:04;;;;;;;40.33;25.48;;;0.30;99.90;;;;;;4944840;28;20047;-49
2021/12/27 05:22:33;;;;;;;39.97;25.45;;;0.30;99.90;;;;;;4945471;28;21169;-47
2021/12/27 05:24:59;;;;;;;39.25;24.33;;;0.30;99.90;;;;;;4947828;28;20053;-51
2021/12/27 05:27:25;;;;;;;40.15;26.30;;;0.30;99.90;;;;;;4948030;29;20054;-51
2021/12/27 05:29:51;;;;;;;39.05;25.13;;;0.30;99.90;;;;;;4945347;28;20565;-47
2021/12/27 05:32:16;;;;;;;42.33;27.08;;;0.30;99.90;;;;;;4928568;29;20051;-47
2021/12/27 05:34:42;;;;;;;40.47;25.52;;;0.30;99.90;;;;;;4929775;29;20059;-50
2021/12/27 05:37:08;;;;;;;42.67;27.27;;;0.30;99.90;;;;;;4928656;29;20051;-47
2021/12/27 05:39:34;;;;;;;40.17;24.27;;;0.30;99.90;;;;;;4944864;28;20086;-48
2021/12/27 05:42:01;;;;;;;39.38;25.30;;;0.30;99.90;;;;;;4944592;28;20047;-47
2021/12/27 05:44:26;;;;;;;40.15;25.88;;;0.30;99.90;;;;;;4945395;28;20506;-49
2021/12/27 05:46:54;;;;;;;45.80;26.38;;;0.30;99.90;;;;;;4945044;28;20071;-48
2021/12/27 05:49:21;;;;;;;41.80;24.95;;;0.30;99.90;;;;;;4927868;29;20462;-48
2021/12/27 05:51:47;;;;;;;41.45;25.90;;;0.30;99.90;;;;;;4944652;28;20057;-48
2021/12/27 05:54:13;;;;;;;38.85;24.73;;;0.40;99.90;;;;;;4945189;28;20047;-47
2021/12/27 05:56:41;;;;;;;48.50;27.35;;;0.40;99.90;;;;;;4944150;28;20051;-47
2021/12/27 05:59:06;;;;;;;42.92;25.98;;;0.40;99.90;;;;;;4944111;28;20691;-48
2021/12/27 06:01:32;;;;;;;41.90;26.85;;;0.40;99.90;;;;;;4944230;28;20171;-47
2021/12/27 06:03:59;;;;;;;40.83;24.33;;;0.40;99.90;;;;;;4945267;28;20533;-47
2021/12/27 06:06:26;;;;;;;45.00;27.27;;;0.40;99.90;;;;;;4946275;28;20063;-48
2021/12/27 06:08:52;;;;;;;42.22;26.13;;;0.40;99.90;;;;;;4928778;29;20051;-48
2021/12/27 06:11:18;;;;;;;44.60;26.38;;;0.40;99.90;;;;;;4942069;28;20047;-47
2021/12/27 06:13:44;;;;;;;46.50;26.83;;;0.40;99.90;;;;;;4935630;28;20051;-47
2021/12/27 06:16:11;;;;;;;46.05;26.73;;;0.40;99.90;;;;;;4944171;28;20051;-47
2021/12/27 06:18:37;;;;;;;51.15;28.50;;;0.40;99.90;;;;;;4935839;29;20055;-49
2021/12/27 06:21:04;;;;;;;48.47;27.88;;;0.40;99.90;;;;;;4943994;28;20412;-48
2021/12/27 06:23:31;;;;;;;46.20;26.65;;;0.50;99.90;;;;;;4944901;28;20501;-48
2021/12/27 06:25:57;;;;;;;49.03;29.30;;;0.50;99.90;;;;;;4944303;28;20055;-48
2021/12/27 06:28:23;;;;;;;52.90;29.63;;;0.50;99.90;;;;;;4927974;29;20051;-47
2021/12/27 06:30:49;;;;;;;52.22;28.30;;;0.50;99.90;;;;;;4930463;28;20051;-50
2021/12/27 06:33:15;;;;;;;57.08;30.58;;;0.50;99.90;;;;;;4945381;28;20263;-50
2021/12/27 06:35:46;;;;;;;62.58;31.25;;;0.50;99.90;;;;;;4945509;28;20067;-48
2021/12/27 06:38:12;;;;;;;55.97;31.75;;;0.40;99.90;;;;;;4919817;29;20125;-51
2021/12/27 06:40:38;;;;;;;50.95;29.02;;;0.50;99.90;;;;;;4921510;29;20058;-48
2021/12/27 06:43:04;;;;;;;56.78;30.35;;;0.50;99.90;;;;;;4927235;29;20162;-47
2021/12/27 06:45:30;;;;;;;55.35;30.17;;;0.50;99.90;;;;;;4914979;29;20077;-48
2021/12/27 06:47:55;;;;;;;64.07;30.15;;;0.50;99.90;;;;;;4943934;29;20038;-48
2021/12/27 06:50:23;;;;;;;56.72;30.58;;;0.50;99.90;;;;;;4941706;28;20531;-47
2021/12/27 06:52:49;;;;;;;60.17;32.15;;;0.50;99.90;;;;;;4921358;29;20567;-49
2021/12/27 06:55:15;;;;;;;59.17;33.08;;;0.50;99.90;;;;;;4920888;29;20078;-47
2021/12/27 06:57:41;;;;;;;53.03;29.67;;;0.50;99.90;;;;;;4943764;29;20077;-48
2021/12/27 07:00:10;;;;;;;58.10;31.25;;;0.50;99.90;;;;;;4945279;29;20417;-47
2021/12/27 07:02:37;;;;;;;60.00;31.58;;;0.50;99.90;;;;;;4948279;29;20043;-50
2021/12/27 07:05:03;;;;;;;62.90;32.28;;;0.50;99.90;;;;;;4944983;29;20106;-52
2021/12/27 07:07:29;;;;;;;73.40;34.97;;;0.50;99.90;;;;;;4943860;29;20062;-47
2021/12/27 07:09:55;;;;;;;74.50;35.08;;;0.50;99.90;;;;;;4926476;29;20118;-48
2021/12/27 07:12:22;;;;;;;63.78;33.15;;;0.50;99.90;;;;;;4940456;29;20043;-49
2021/12/27 07:14:48;;;;;;;65.35;33.72;;;0.60;99.90;;;;;;4943598;29;20051;-48
2021/12/27 07:17:15;;;;;;;80.05;35.75;;;0.50;99.90;;;;;;4933611;29;20198;-48
2021/12/27 07:19:42;;;;;;;80.13;35.63;;;0.60;99.90;;;;;;4922957;29;20411;-46
2021/12/27 07:22:07;;;;;;;74.00;34.15;;;0.60;99.90;;;;;;4943569;28;20079;-49
2021/12/27 07:24:34;;;;;;;67.97;32.92;;;0.60;99.90;;;;;;4944699;28;20166;-47
2021/12/27 07:26:59;;;;;;;77.72;33.55;;;0.60;99.90;;;;;;4918501;29;20063;-48
2021/12/27 07:29:26;;;;;;;84.95;37.05;;;0.60;99.90;;;;;;4942001;29;20046;-49
2021/12/27 07:31:52;;;;;;;78.10;34.50;;;0.60;99.90;;;;;;4937305;29;20089;-50
2021/12/27 07:34:19;;;;;;;87.82;34.45;;;0.60;99.90;;;;;;4944946;28;20232;-49
2021/12/27 07:36:46;;;;;;;95.85;36.95;;;0.60;99.90;;;;;;4935634;29;20159;-46
2021/12/27 07:39:13;;;;;;;83.93;34.20;;;0.60;99.90;;;;;;4943133;29;20387;-51
2021/12/27 07:41:39;;;;;;;89.45;35.30;;;0.60;99.90;;;;;;4934698;29;20051;-49
2021/12/27 07:44:05;;;;;;;98.45;37.42;;;0.50;99.90;;;;;;4943050;29;20054;-48
2021/12/27 07:46:31;;;;;;;107.45;36.80;;;0.60;99.90;;;;;;4943304;28;20043;-47
2021/12/27 07:48:56;;;;;;;94.53;37.05;;;0.60;99.90;;;;;;4943741;28;20508;-48
2021/12/27 07:51:22;;;;;;;110.97;40.50;;;0.50;99.90;;;;;;4942003;29;20059;-48
2021/12/27 07:53:48;;;;;;;102.22;38.15;;;0.60;99.90;;;;;;4942401;29;20055;-48
2021/12/27 07:56:14;;;;;;;110.63;40.70;;;0.60;99.90;;;;;;4929494;29;20051;-47
2021/12/27 07:58:40;;;;;;;97.72;38.97;;;0.60;99.90;;;;;;4933958;29;20106;-47
2021/12/27 08:01:07;;;;;;;139.73;42.85;;;0.60;99.90;;;;;;4936240;29;20051;-48
2021/12/27 08:03:33;;;;;;;104.53;37.13;;;0.60;99.90;;;;;;4938824;29;20075;-48
2021/12/27 08:05:58;;;;;;;114.13;38.25;;;0.60;99.90;;;;;;4941951;28;20130;-48
2021/12/27 08:08:24;;;;;;;136.77;41.75;;;0.70;99.90;;;;;;4923502;28;20609;-47
2021/12/27 08:10:50;;;;;;;122.32;40.25;;;0.70;99.90;;;;;;4937507;28;20047;-51
2021/12/27 08:13:16;;;;;;;146.20;44.13;;;0.70;99.90;;;;;;4941980;28;20051;-47
2021/12/27 08:15:41;;;;;;;114.10;39.38;;;0.70;99.90;;;;;;4941458;28;20039;-48
2021/12/27 08:18:07;;;;;;;132.80;39.65;;;0.70;99.90;;;;;;4940026;29;20062;-48
2021/12/27 08:20:33;;;;;;;123.22;40.67;;;0.70;99.90;;;;;;4938410;28;20052;-48
2021/12/27 08:22:59;;;;;;;135.05;43.25;;;0.70;99.90;;;;;;4917672;29;20059;-48
2021/12/27 08:25:24;;;;;;;106.60;37.83;;;0.70;99.90;;;;;;4939590;29;20074;-47
2021/12/27 08:27:51;;;;;;;130.60;38.45;;;0.70;99.90;;;;;;4940256;29;20374;-46
2021/12/27 08:30:17;;;;;;;113.07;38.00;;;0.80;99.90;;;;;;4938654;29;20051;-47
2021/12/27 08:32:47;;;;;;;123.25;40.22;;;0.80;99.90;;;;;;4940748;28;20086;-48
2021/12/27 08:35:14;;;;;;;106.80;37.42;;;0.80;99.90;;;;;;4943437;28;20065;-48
2021/12/27 08:37:42;;;;;;;111.45;37.88;;;0.80;99.90;;;;;;4924513;29;20574;-48
2021/12/27 08:40:09;;;;;;;107.95;37.13;;;0.80;99.90;;;;;;4945666;29;20051;-47
2021/12/27 08:42:35;;;;;;;95.95;37.30;;;0.80;99.90;;;;;;4942322;29;20043;-47
2021/12/27 08:45:03;;;;;;;109.18;39.47;;;0.90;99.90;;;;;;4946481;29;20054;-48
2021/12/27 08:47:29;;;;;;;95.30;33.88;;;1.00;99.90;;;;;;4942635;29;20517;-48
2021/12/27 08:49:55;;;;;;;97.20;35.97;;;0.90;99.90;;;;;;4944701;28;20047;-47
2021/12/27 08:52:21;;;;;;;90.82;34.28;;;1.00;99.90;;;;;;4923512;29;20090;-47
2021/12/27 08:54:47;;;;;;;84.32;39.47;;;0.90;99.90;;;;;;4937528;28;20047;-47
2021/12/27 08:57:13;;;;;;;86.78;33.75;;;1.00;99.90;;;;;;4941808;29;20385;-49
2021/12/27 08:59:39;;;;;;;90.57;34.65;;;1.00;99.90;;;;;;4941445;29;20521;-48
2021/12/27 09:02:05;;;;;;;84.57;33.45;;;1.00;99.90;;;;;;4944371;29;20126;-48
2021/12/27 09:04:32;;;;;;;81.72;33.75;;;1.00;99.90;;;;;;4925220;29;20133;-48
2021/12/27 09:06:59;;;;;;;66.55;30.30;;;1.10;99.90;;;;;;4942025;28;20051;-48
2021/12/27 09:09:25;;;;;;;81.25;31.50;;;1.10;99.90;;;;;;4944156;28;20097;-47
2021/12/27 09:11:51;;;;;;;69.22;29.30;;;1.10;99.90;;;;;;4945250;29;20178;-49
2021/12/27 09:14:17;;;;;;;73.82;30.08;;;1.10;99.90;;;;;;4944713;29;20063;-47
2021/12/27 09:16:44;;;;;;;72.55;29.92;;;1.10;99.90;;;;;;4945751;29;20047;-48
2021/12/27 09:19:11;;;;;;;70.00;29.55;;;1.10;99.90;;;;;;4943217;28;20054;-48
2021/12/27 09:21:37;;;;;;;69.65;30.90;;;1.20;99.90;;;;;;4944630;28;20114;-47
2021/12/27 09:24:04;;;;;;;75.88;30.92;;;1.20;99.90;;;;;;4943679;29;20102;-48
2021/12/27 09:26:29;;;;;;;70.53;30.85;;;1.20;99.90;;;;;;4945152;28;20062;-49
2021/12/27 09:28:57;;;;;;;93.30;31.85;;;1.20;99.90;;;;;;4939448;28;20047;-49
2021/12/27 09:31:23;;;;;;;76.93;30.38;;;1.20;99.90;;;;;;4942600;29;20061;-50
2021/12/27 09:33:49;;;;;;;73.15;27.70;;;1.20;99.90;;;;;;4940403;28;20047;-47
2021/12/27 09:36:15;;;;;;;84.53;31.60;;;1.20;99.90;;;;;;4938343;29;20051;-47
2021/12/27 09:38:41;;;;;;;87.53;31.77;;;1.20;99.90;;;;;;4941285;29;20098;-48
2021/12/27 09:41:08;;;;;;;104.13;34.42;;;1.30;99.90;;;;;;4942504;29;20067;-48
2021/12/27 09:43:36;;;;;;;114.78;33.80;;;1.30;99.90;;;;;;4941466;29;20609;-47
2021/12/27 09:46:05;;;;;;;85.82;32.53;;;1.30;99.90;;;;;;4939853;28;20410;-48
2021/12/27 09:48:30;;;;;;;100.85;32.67;;;1.40;99.90;;;;;;4937188;28;20394;-49
2021/12/27 09:50:57;;;;;;;103.18;33.63;;;1.40;99.90;;;;;;4940217;28;20051;-49
2021/12/27 09:53:23;;;;;;;107.93;35.97;;;1.30;99.90;;;;;;4946980;28;20199;-49
2021/12/27 09:55:49;;;;;;;122.43;35.13;;;1.40;99.90;;;;;;4944889;28;20047;-50
2021/12/27 09:58:20;;;;;;;132.52;37.20;;;1.40;99.90;;;;;;4941273;28;20047;-48
2021/12/27 10:00:46;;;;;;;103.63;33.20;;;1.40;99.90;;;;;;4941397;28;20130;-48
2021/12/27 10:03:12;;;;;;;106.53;33.75;;;1.40;99.90;;;;;;4927118;29;20182;-47
2021/12/27 10:05:39;;;;;;;99.82;34.22;;;1.50;99.90;;;;;;4925206;28;20051;-48
2021/12/27 10:08:05;;;;;;;105.53;34.85;;;1.50;99.90;;;;;;4925905;29;20058;-48
2021/12/27 10:10:36;;;;;;;110.97;35.13;;;1.50;99.90;;;;;;4939599;28;20051;-49
2021/12/27 10:13:10;;;;;;;127.05;35.47;;;1.50;99.90;;;;;;4943091;29;20047;-48
2021/12/27 10:15:39;;;;;;;132.05;37.25;;;1.50;99.90;;;;;;4943095;29;20070;-47
2021/12/27 10:18:14;;;;;;;139.50;36.08;;;1.50;99.90;;;;;;4946352;29;20055;-50
2021/12/27 10:20:40;;;;;;;130.25;37.60;;;1.60;99.90;;;;;;4929854;29;20095;-48
2021/12/27 10:23:06;;;;;;;172.52;38.38;;;1.70;99.90;;;;;;4922773;29;20582;-48
2021/12/27 10:25:33;;;;;;;151.02;39.10;;;1.70;99.90;;;;;;4939905;29;20051;-48
2021/12/27 10:28:00;;;;;;;163.93;39.63;;;1.70;99.90;;;;;;4940172;29;20066;-47
2021/12/27 10:30:31;;;;;;;146.82;40.33;;;1.80;99.90;;;;;;4938274;28;20051;-50
2021/12/27 10:33:13;;;;;;;115.80;37.10;;;1.80;99.90;;;;;;4941954;28;20062;-47
2021/12/27 10:35:50;;;;;;;153.30;40.63;;;1.90;99.90;;;;;;4944775;28;20118;-48
2021/12/27 10:38:31;;;;;;;131.35;36.97;;;1.90;99.90;;;;;;4932613;28;20467;-48
2021/12/27 10:41:09;;;;;;;157.25;38.95;;;2.00;99.90;;;;;;4941489;29;20086;-48
2021/12/27 10:43:55;;;;;;;108.10;34.20;;;1.90;99.90;;;;;;4937576;29;20051;-48
2021/12/27 10:46:21;;;;;;;126.57;35.35;;;2.00;99.90;;;;;;4937994;29;20073;-49
2021/12/27 10:48:59;;;;;;;103.47;35.35;;;2.00;99.90;;;;;;4940494;28;20035;-48
2021/12/27 10:51:27;;;;;;;120.97;35.83;;;2.10;99.90;;;;;;4936272;29;20070;-47
2021/12/27 10:53:56;;;;;;;137.43;40.50;;;2.20;99.90;;;;;;4936383;29;20051;-51
2021/12/27 10:56:24;;;;;;;138.18;36.85;;;2.20;99.90;;;;;;4905571;29;20109;-48
2021/12/27 10:58:50;;;;;;;137.05;37.15;;;2.20;99.90;;;;;;4918174;29;20122;-47
2021/12/27 11:01:18;;;;;;;101.10;34.67;;;2.20;99.90;;;;;;4937480;28;20566;-47
2021/12/27 11:03:45;;;;;;;119.55;36.28;;;2.30;99.90;;;;;;4935762;28;20055;-48
2021/12/27 11:06:14;;;;;;;91.78;33.88;;;2.30;99.90;;;;;;4916814;29;20051;-48
2021/12/27 11:08:42;;;;;;;105.45;34.08;;;2.30;99.90;;;;;;4925184;29;20047;-50
2021/12/27 11:11:09;;;;;;;114.13;35.35;;;2.30;99.90;;;;;;4942008;28;20036;-48
2021/12/27 11:13:35;;;;;;;80.93;32.90;;;2.30;99.90;;;;;;4910770;29;20086;-49
2021/12/27 11:16:02;;;;;;;84.18;32.90;;;2.30;99.90;;;;;;4939401;29;20083;-50
2021/12/27 11:18:28;;;;;;;92.88;34.40;;;2.40;99.90;;;;;;4934405;28;20051;-47
2021/12/27 11:20:59;;;;;;;60.55;28.38;;;2.50;99.90;;;;;;4937028;28;20050;-48
2021/12/27 11:23:27;;;;;;;76.80;31.98;;;2.50;99.90;;;;;;4937914;28;20484;-48
2021/12/27 11:26:12;;;;;;;74.97;31.20;;;2.60;99.90;;;;;;4936800;28;20070;-48
2021/12/27 11:28:40;;;;;;;79.07;30.92;;;2.60;99.90;;;;;;4933598;28;20054;-47
2021/12/27 11:31:24;;;;;;;69.95;29.80;;;2.60;99.90;;;;;;4935502;28;20087;-48
2021/12/27 11:33:54;;;;;;;77.43;32.05;;;2.60;99.90;;;;;;4929621;28;20069;-51
2021/12/27 11:36:25;;;;;;;96.07;33.70;;;2.60;99.90;;;;;;4919029;28;20066;-48
2021/12/27 11:38:51;;;;;;;76.20;30.50;;;2.70;99.90;;;;;;4933103;28;20054;-48
2021/12/27 11:41:32;;;;;;;76.82;31.55;;;2.60;99.90;;;;;;4932535;28;20039;-47
2021/12/27 11:44:04;;;;;;;103.78;33.35;;;2.60;99.90;;;;;;4932837;28;20094;-47
2021/12/27 11:46:51;;;;;;;92.65;34.13;;;2.60;99.90;;;;;;4920323;29;20052;-48
2021/12/27 11:49:45;;;;;;;92.93;34.75;;;2.60;99.90;;;;;;4932296;28;20134;-48
2021/12/27 11:52:32;;;;;;;;;;;2.60;99.90;;;;;;4915088;29;20059;-47
2021/12/27 11:55:05;;;;;;;80.05;28.45;;;2.60;99.90;;;;;;4935104;28;19982;-47
2021/12/27 11:57:58;;;;;;;93.20;34.17;;;2.70;99.90;;;;;;4920255;29;20063;-48
2021/12/27 12:00:24;;;;;;;106.78;45.13;;;2.70;99.90;;;;;;4879037;29;20056;-47
2021/12/27 12:02:54;;;;;;;133.35;43.38;;;2.70;99.90;;;;;;4877533;29;20527;-47
2021/12/27 12:05:35;;;;;;;117.65;35.40;;;2.70;99.90;;;;;;4880458;29;20560;-47
2021/12/27 12:08:03;;;;;;;107.25;39.97;;;2.80;99.90;;;;;;4878286;29;20053;-48
2021/12/27 12:10:30;;;;;;;152.45;38.65;;;2.80;99.90;;;;;;4854135;29;20053;-47
2021/12/27 12:13:20;;;;;;;140.07;44.13;;;2.80;99.90;;;;;;4884205;29;20115;-47
2021/12/27 12:16:10;;;;;;;165.70;42.33;;;2.90;99.90;;;;;;4871254;29;20104;-48
2021/12/27 12:18:41;;;;;;;146.82;40.55;;;3.00;99.90;;;;;;4874872;29;20064;-47
2021/12/27 12:21:32;;;;;;;150.57;41.53;;;3.00;99.90;;;;;;4866521;29;20139;-47
2021/12/27 12:24:05;;;;;;;176.80;42.90;;;3.00;99.90;;;;;;4876438;29;20053;-48
2021/12/27 12:26:52;;;;;;;131.80;41.30;;;3.10;99.90;;;;;;4876663;29;20056;-46
2021/12/27 12:29:19;;;;;;;132.30;41.33;;;3.10;99.90;;;;;;4877981;29;20568;-46
2021/12/27 12:31:45;;;;;;;157.32;42.42;;;3.00;99.90;;;;;;4882743;29;20143;-47
2021/12/27 12:34:20;;;;;;;118.38;39.22;;;3.10;99.90;;;;;;4865213;29;20121;-47
2021/12/27 12:36:56;;;;;;;135.23;42.58;;;3.10;99.90;;;;;;4896552;29;20564;-48
2021/12/27 12:39:24;;;;;;;129.93;40.85;;;3.10;99.90;;;;;;4922870;29;20047;-48